Time;durP1;ratioP1;P1;durP2;ratioP2;P2;SDS_P1;SDS_P2;PMS_P1;PMS_P2;Temp;Humidity;BMP_temperature;BMP_pressure;BME280_temperature;BME280_humidity;BME280_pressure;Samples;Min_cycle;Max_cycle;Signal;HPM_P1;HPM_P2
2021/12/10 00:02:11;;;;;;;6.03;5.30;;;;;;;;;;5031558;28;20227;-64
2021/12/10 00:04:37;;;;;;;7.00;5.20;;;;;;;;;;5033308;28;20361;-66
2021/12/10 00:07:05;;;;;;;8.10;5.40;;;;;;;;;;5025961;28;20254;-64
2021/12/10 00:09:34;;;;;;;8.70;5.47;;;;;;;;;;5027641;28;20235;-64
2021/12/10 00:12:03;;;;;;;5.83;5.10;;;;;;;;;;5033134;28;20235;-64
2021/12/10 00:14:31;;;;;;;7.90;5.53;;;;;;;;;;5046590;28;20222;-64
2021/12/10 00:16:57;;;;;;;5.97;5.37;;;;;;;;;;5052430;28;20230;-65
2021/12/10 00:19:32;;;;;;;6.67;5.07;;;;;;;;;;5033492;28;20235;-65
2021/12/10 00:21:58;;;;;;;7.57;5.40;;;;;;;;;;5047632;28;20241;-65
2021/12/10 00:24:28;;;;;;;6.00;5.07;;;;;;;;;;5045100;28;20611;-65
2021/12/10 00:26:54;;;;;;;7.50;5.17;;;;;;;;;;5050854;28;20716;-64
2021/12/10 00:29:20;;;;;;;5.90;5.30;;;;;;;;;;5045643;28;21027;-65
2021/12/10 00:31:49;;;;;;;5.70;4.77;;;;;;;;;;5031847;28;20227;-65
2021/12/10 00:34:21;;;;;;;6.53;4.83;;;;;;;;;;5045858;28;20223;-65
2021/12/10 00:36:47;;;;;;;7.73;4.70;;;;;;;;;;5047076;28;20601;-65
2021/12/10 00:39:15;;;;;;;6.67;4.70;;;;;;;;;;5049505;28;20250;-65
2021/12/10 00:41:41;;;;;;;7.27;4.63;;;;;;;;;;5046508;28;20355;-65
2021/12/10 00:44:07;;;;;;;5.57;4.30;;;;;;;;;;5033469;28;20239;-65
2021/12/10 00:46:33;;;;;;;6.97;4.20;;;;;;;;;;5041346;28;20651;-65
2021/12/10 00:48:59;;;;;;;6.07;4.27;;;;;;;;;;5038327;28;20242;-65
2021/12/10 00:51:25;;;;;;;7.17;4.40;;;;;;;;;;5035257;28;20291;-66
2021/12/10 00:53:52;;;;;;;5.33;4.20;;;;;;;;;;5054778;28;20231;-65
2021/12/10 00:56:18;;;;;;;6.87;4.77;;;;;;;;;;5045617;28;20317;-66
2021/12/10 00:58:44;;;;;;;7.03;4.23;;;;;;;;;;5048435;28;20281;-65
2021/12/10 01:01:14;;;;;;;6.83;4.40;;;;;;;;;;5053080;28;20235;-65
2021/12/10 01:03:52;;;;;;;7.57;4.57;;;;;;;;;;5049483;28;20653;-66
2021/12/10 01:06:18;;;;;;;6.50;4.97;;;;;;;;;;5053726;28;20737;-65
2021/12/10 01:08:45;;;;;;;6.80;4.40;;;;;;;;;;5052318;28;20334;-65
2021/12/10 01:11:20;;;;;;;5.93;4.50;;;;;;;;;;5052273;28;20235;-65
2021/12/10 01:13:48;;;;;;;7.93;4.63;;;;;;;;;;5053723;28;20230;-64
2021/12/10 01:27:00;;;;;;;8.23;4.23;;;;;;;;;;5051744;28;20235;-65
2021/12/10 01:29:28;;;;;;;7.53;4.43;;;;;;;;;;5058862;28;20392;-65
2021/12/10 01:31:54;;;;;;;6.20;3.90;;;;;;;;;;5058316;28;20893;-65
2021/12/10 01:34:20;;;;;;;5.13;3.60;;;;;;;;;;5048561;28;20231;-65
2021/12/10 01:36:46;;;;;;;9.23;4.17;;;;;;;;;;5051645;28;20264;-65
2021/12/10 01:39:17;;;;;;;6.70;3.87;;;;;;;;;;5033862;28;20772;-65
2021/12/10 01:41:53;;;;;;;6.23;4.00;;;;;;;;;;5051287;28;20342;-64
2021/12/10 01:44:27;;;;;;;6.30;4.10;;;;;;;;;;5051678;28;20365;-65
2021/12/10 01:46:53;;;;;;;5.50;3.90;;;;;;;;;;5052009;28;20731;-66
2021/12/10 01:49:19;;;;;;;8.23;4.20;;;;;;;;;;5053928;28;20231;-64
2021/12/10 01:51:45;;;;;;;9.13;4.27;;;;;;;;;;5051042;28;20231;-64
2021/12/10 01:54:17;;;;;;;8.27;4.20;;;;;;;;;;5041856;28;20275;-66
2021/12/10 01:56:43;;;;;;;8.10;4.27;;;;;;;;;;5043740;28;20237;-65
2021/12/10 01:59:10;;;;;;;8.53;4.03;;;;;;;;;;5049419;28;20242;-66
2021/12/10 02:01:40;;;;;;;6.53;3.73;;;;;;;;;;5051595;28;20974;-65
2021/12/10 02:04:07;;;;;;;7.97;4.10;;;;;;;;;;5046868;28;20234;-66
2021/12/10 02:06:33;;;;;;;6.43;3.83;;;;;;;;;;5052992;28;20223;-65
2021/12/10 02:08:59;;;;;;;5.70;4.30;;;;;;;;;;5045459;28;20342;-65
2021/12/10 02:11:25;;;;;;;8.07;4.00;;;;;;;;;;5055984;28;20237;-65
2021/12/10 02:13:51;;;;;;;11.43;4.43;;;;;;;;;;5047521;28;22652;-65
2021/12/10 02:16:17;;;;;;;5.17;3.97;;;;;;;;;;5053280;28;20378;-65
2021/12/10 02:18:43;;;;;;;9.40;4.77;;;;;;;;;;5057399;28;22427;-65
2021/12/10 02:21:09;;;;;;;7.07;4.10;;;;;;;;;;5049417;28;20315;-66
2021/12/10 02:23:39;;;;;;;8.10;4.00;;;;;;;;;;5053841;28;20231;-65
2021/12/10 02:26:06;;;;;;;4.87;4.03;;;;;;;;;;5055937;28;20952;-65
2021/12/10 02:28:32;;;;;;;7.50;3.70;;;;;;;;;;5052943;28;20239;-65
2021/12/10 02:30:59;;;;;;;11.27;4.10;;;;;;;;;;5052044;28;20573;-65
2021/12/10 02:33:25;;;;;;;10.07;4.83;;;;;;;;;;5053036;28;21035;-65
2021/12/10 02:35:51;;;;;;;8.57;4.30;;;;;;;;;;5042290;28;20223;-64
2021/12/10 02:38:18;;;;;;;6.20;3.90;;;;;;;;;;5053086;28;20235;-65
2021/12/10 02:40:44;;;;;;;6.97;4.50;;;;;;;;;;5043417;28;20295;-65
2021/12/10 02:43:11;;;;;;;9.30;4.20;;;;;;;;;;5047249;28;20614;-65
2021/12/10 02:45:37;;;;;;;8.13;3.87;;;;;;;;;;5020214;28;20255;-65
2021/12/10 02:48:03;;;;;;;8.47;4.17;;;;;;;;;;5051507;28;20718;-65
2021/12/10 02:50:29;;;;;;;9.20;4.07;;;;;;;;;;5048561;28;20235;-64
2021/12/10 02:52:55;;;;;;;6.87;4.40;;;;;;;;;;5046959;28;20253;-66
2021/12/10 02:55:22;;;;;;;8.53;4.27;;;;;;;;;;5049253;28;20224;-65
2021/12/10 02:57:49;;;;;;;7.87;3.80;;;;;;;;;;5052815;28;20255;-65
2021/12/10 03:00:17;;;;;;;8.10;3.67;;;;;;;;;;5044375;28;20242;-65
2021/12/10 03:02:43;;;;;;;6.40;3.53;;;;;;;;;;5048116;28;20223;-66
2021/12/10 03:05:09;;;;;;;6.33;3.57;;;;;;;;;;5034411;28;22661;-64
2021/12/10 03:07:36;;;;;;;7.13;3.63;;;;;;;;;;5044716;28;20740;-65
2021/12/10 03:10:02;;;;;;;5.13;3.13;;;;;;;;;;5048615;28;20265;-65
2021/12/10 03:12:30;;;;;;;5.83;3.37;;;;;;;;;;5050555;28;20232;-65
2021/12/10 03:14:56;;;;;;;5.80;3.47;;;;;;;;;;5035846;28;20929;-65
2021/12/10 03:17:23;;;;;;;6.77;3.57;;;;;;;;;;5039967;28;20430;-65
2021/12/10 03:19:50;;;;;;;7.57;3.83;;;;;;;;;;5048096;28;20239;-65
2021/12/10 03:22:16;;;;;;;6.47;3.20;;;;;;;;;;5049367;28;20579;-65
2021/12/10 03:24:42;;;;;;;7.13;3.00;;;;;;;;;;5048688;28;20293;-65
2021/12/10 03:27:10;;;;;;;6.67;2.97;;;;;;;;;;5056057;28;20306;-66
2021/12/10 03:29:36;;;;;;;7.67;2.97;;;;;;;;;;5049439;28;20223;-66
2021/12/10 03:32:03;;;;;;;9.57;3.10;;;;;;;;;;5050684;28;20722;-65
2021/12/10 03:34:29;;;;;;;6.30;3.03;;;;;;;;;;5049632;28;20314;-65
2021/12/10 03:36:55;;;;;;;7.27;3.03;;;;;;;;;;5048798;28;20280;-64
2021/12/10 03:39:22;;;;;;;4.83;2.97;;;;;;;;;;5045939;28;20232;-65
2021/12/10 03:41:49;;;;;;;10.37;3.43;;;;;;;;;;5048866;28;20366;-65
2021/12/10 03:44:15;;;;;;;8.80;3.10;;;;;;;;;;5045306;28;20362;-65
2021/12/10 03:46:41;;;;;;;6.23;2.80;;;;;;;;;;5046715;28;20235;-65
2021/12/10 03:49:07;;;;;;;8.03;2.77;;;;;;;;;;5045231;28;20231;-64
2021/12/10 03:51:34;;;;;;;4.40;2.80;;;;;;;;;;5053565;28;20308;-65
2021/12/10 03:54:00;;;;;;;8.83;3.00;;;;;;;;;;5050648;28;20311;-65
2021/12/10 03:56:26;;;;;;;9.60;3.17;;;;;;;;;;5055546;28;20361;-65
2021/12/10 03:58:52;;;;;;;9.50;2.93;;;;;;;;;;5048623;28;23231;-65
2021/12/10 04:01:20;;;;;;;8.00;3.20;;;;;;;;;;5051630;28;20242;-65
2021/12/10 04:03:46;;;;;;;6.37;2.73;;;;;;;;;;5048398;28;20227;-65
2021/12/10 04:06:12;;;;;;;5.57;3.00;;;;;;;;;;5047481;28;20223;-65
2021/12/10 04:08:38;;;;;;;5.40;2.93;;;;;;;;;;5046604;28;20321;-65
2021/12/10 04:11:04;;;;;;;4.93;2.60;;;;;;;;;;5052311;28;20226;-65
2021/12/10 04:13:30;;;;;;;4.90;2.57;;;;;;;;;;5048855;28;20227;-65
2021/12/10 04:15:56;;;;;;;5.80;2.60;;;;;;;;;;5039395;28;20708;-65
2021/12/10 04:18:22;;;;;;;7.43;2.60;;;;;;;;;;5044765;28;20232;-64
2021/12/10 04:20:48;;;;;;;8.87;2.60;;;;;;;;;;5049008;28;20802;-64
2021/12/10 04:23:15;;;;;;;4.90;2.40;;;;;;;;;;5050639;28;20274;-66
2021/12/10 04:25:41;;;;;;;8.23;3.10;;;;;;;;;;5040286;28;20246;-64
2021/12/10 04:28:08;;;;;;;7.47;2.33;;;;;;;;;;5042644;28;20227;-64
2021/12/10 04:30:39;;;;;;;5.30;2.40;;;;;;;;;;5043917;28;20238;-66
2021/12/10 04:33:05;;;;;;;5.17;2.17;;;;;;;;;;5042317;28;20319;-66
2021/12/10 04:35:31;;;;;;;5.23;2.20;;;;;;;;;;5039444;28;20254;-64
2021/12/10 04:37:57;;;;;;;5.90;2.83;;;;;;;;;;5047482;28;20388;-65
2021/12/10 04:40:23;;;;;;;6.70;2.70;;;;;;;;;;5045305;28;20239;-65
2021/12/10 04:42:49;;;;;;;4.67;2.50;;;;;;;;;;5044723;28;20331;-65
2021/12/10 04:45:16;;;;;;;6.87;2.30;;;;;;;;;;5036373;28;20231;-64
2021/12/10 04:47:43;;;;;;;6.43;2.27;;;;;;;;;;5045769;28;20606;-64
2021/12/10 04:50:09;;;;;;;8.17;2.40;;;;;;;;;;5036711;28;20813;-65
2021/12/10 04:52:35;;;;;;;6.00;2.20;;;;;;;;;;5045349;28;20220;-65
2021/12/10 04:55:05;;;;;;;6.03;2.60;;;;;;;;;;5048263;28;20264;-65
2021/12/10 04:57:31;;;;;;;6.60;2.60;;;;;;;;;;5037672;28;20224;-65
2021/12/10 04:59:57;;;;;;;5.57;2.40;;;;;;;;;;5050174;28;20235;-64
2021/12/10 05:02:23;;;;;;;8.23;2.57;;;;;;;;;;5044634;28;20230;-66
2021/12/10 05:04:49;;;;;;;6.20;2.27;;;;;;;;;;5042624;28;20228;-65
2021/12/10 05:07:16;;;;;;;7.60;2.77;;;;;;;;;;5043989;28;20308;-65
2021/12/10 05:09:42;;;;;;;5.27;2.67;;;;;;;;;;5047520;28;20354;-63
2021/12/10 05:12:08;;;;;;;8.27;2.50;;;;;;;;;;5041075;28;20594;-64
2021/12/10 05:14:34;;;;;;;5.00;2.60;;;;;;;;;;5046712;28;20231;-64
2021/12/10 05:17:04;;;;;;;5.87;2.47;;;;;;;;;;5043922;28;20358;-65
2021/12/10 05:19:30;;;;;;;7.57;2.93;;;;;;;;;;5046666;28;20247;-65
2021/12/10 05:21:59;;;;;;;7.97;2.40;;;;;;;;;;5035874;28;20258;-63
2021/12/10 05:24:25;;;;;;;7.03;2.60;;;;;;;;;;5040461;28;20230;-64
2021/12/10 05:26:51;;;;;;;6.23;2.97;;;;;;;;;;5048648;28;20237;-65
2021/12/10 05:29:17;;;;;;;4.00;2.80;;;;;;;;;;5043626;28;20327;-65
2021/12/10 05:31:43;;;;;;;5.17;3.00;;;;;;;;;;5040919;28;20798;-64
2021/12/10 05:34:09;;;;;;;4.37;2.70;;;;;;;;;;5048737;28;20766;-65
2021/12/10 05:36:35;;;;;;;6.80;2.83;;;;;;;;;;5046043;28;20226;-64
2021/12/10 05:39:02;;;;;;;6.90;3.07;;;;;;;;;;5048431;28;20258;-65
2021/12/10 05:41:28;;;;;;;6.80;3.10;;;;;;;;;;5038481;28;21101;-64
2021/12/10 05:43:54;;;;;;;6.23;3.20;;;;;;;;;;5040812;28;24277;-64
2021/12/10 05:46:20;;;;;;;10.87;3.40;;;;;;;;;;5043732;28;20697;-64
2021/12/10 05:48:46;;;;;;;6.87;3.40;;;;;;;;;;5047278;28;20239;-64
2021/12/10 05:51:12;;;;;;;7.37;3.27;;;;;;;;;;5050115;28;20234;-64
2021/12/10 05:53:38;;;;;;;8.73;3.97;;;;;;;;;;5052785;28;20711;-64
2021/12/10 05:56:04;;;;;;;10.50;3.70;;;;;;;;;;5045429;28;20298;-64
2021/12/10 05:58:30;;;;;;;9.43;4.20;;;;;;;;;;5033774;28;20243;-64
2021/12/10 06:01:02;;;;;;;7.97;3.47;;;;;;;;;;5044442;28;24895;-64
2021/12/10 06:03:29;;;;;;;9.67;4.13;;;;;;;;;;5034280;28;20655;-63
2021/12/10 06:05:55;;;;;;;9.07;3.87;;;;;;;;;;5043847;28;20232;-64
2021/12/10 06:08:23;;;;;;;8.00;4.00;;;;;;;;;;5039958;28;20290;-64
2021/12/10 06:10:49;;;;;;;8.40;4.20;;;;;;;;;;5038563;28;20246;-64
2021/12/10 06:13:15;;;;;;;6.67;3.90;;;;;;;;;;5038722;28;20606;-64
2021/12/10 06:15:41;;;;;;;6.37;3.60;;;;;;;;;;5045731;28;20235;-63
2021/12/10 06:18:07;;;;;;;9.43;3.90;;;;;;;;;;5040925;28;20227;-62
2021/12/10 06:20:34;;;;;;;7.23;4.50;;;;;;;;;;5042187;28;20239;-64
2021/12/10 06:23:00;;;;;;;8.93;4.53;;;;;;;;;;5047837;28;20259;-63
2021/12/10 06:25:27;;;;;;;10.03;4.10;;;;;;;;;;5048626;28;20277;-63
2021/12/10 06:27:53;;;;;;;7.70;4.20;;;;;;;;;;5038141;28;20865;-63
2021/12/10 06:30:21;;;;;;;8.70;3.90;;;;;;;;;;5021750;28;20365;-64
2021/12/10 06:32:47;;;;;;;11.97;4.10;;;;;;;;;;5036755;28;20254;-64
2021/12/10 06:35:13;;;;;;;10.83;4.50;;;;;;;;;;5039884;28;20326;-64
2021/12/10 06:37:39;;;;;;;8.90;4.10;;;;;;;;;;5033153;28;20910;-65
2021/12/10 06:40:06;;;;;;;9.27;4.13;;;;;;;;;;5042645;28;20239;-65
2021/12/10 06:42:32;;;;;;;11.27;4.47;;;;;;;;;;5049070;28;20719;-65
2021/12/10 06:44:58;;;;;;;7.97;3.67;;;;;;;;;;5046912;28;20599;-64
2021/12/10 06:47:24;;;;;;;7.30;3.60;;;;;;;;;;5036333;28;20697;-64
2021/12/10 06:49:50;;;;;;;8.97;3.83;;;;;;;;;;5035398;28;20966;-65
2021/12/10 06:52:16;;;;;;;10.27;4.10;;;;;;;;;;5050676;28;20688;-64
2021/12/10 06:54:42;;;;;;;7.73;3.47;;;;;;;;;;5053599;28;20262;-63
2021/12/10 06:57:08;;;;;;;9.97;3.97;;;;;;;;;;5042765;28;20424;-64
2021/12/10 06:59:34;;;;;;;9.50;3.60;;;;;;;;;;5034237;28;20794;-65
2021/12/10 07:02:00;;;;;;;8.00;3.70;;;;;;;;;;5041810;28;21989;-64
2021/12/10 07:04:25;;;;;;;11.37;3.60;;;;;;;;;;5048410;28;20681;-63
2021/12/10 07:06:53;;;;;;;5.40;3.57;;;;;;;;;;5044776;28;20957;-64
2021/12/10 07:09:20;;;;;;;5.87;3.63;;;;;;;;;;5040088;28;20276;-64
2021/12/10 07:11:46;;;;;;;6.93;3.30;;;;;;;;;;5043077;28;20235;-63
2021/12/10 07:14:12;;;;;;;9.70;3.33;;;;;;;;;;5056464;28;20242;-64
2021/12/10 07:16:38;;;;;;;8.00;4.03;;;;;;;;;;5051116;28;20234;-64
2021/12/10 07:19:04;;;;;;;10.70;3.30;;;;;;;;;;5048321;28;20235;-64
2021/12/10 07:21:31;;;;;;;5.40;3.27;;;;;;;;;;5039858;28;20238;-64
2021/12/10 07:23:58;;;;;;;8.77;3.77;;;;;;;;;;5044562;28;21228;-64
2021/12/10 07:26:24;;;;;;;10.23;3.87;;;;;;;;;;5046840;28;22028;-64
2021/12/10 07:28:50;;;;;;;9.23;3.50;;;;;;;;;;5044216;28;20593;-65
2021/12/10 07:31:16;;;;;;;9.07;3.43;;;;;;;;;;5044057;28;22068;-64
2021/12/10 07:33:42;;;;;;;8.43;3.57;;;;;;;;;;5048626;28;20737;-64
2021/12/10 07:36:08;;;;;;;6.77;3.30;;;;;;;;;;5048171;28;20678;-64
2021/12/10 07:38:34;;;;;;;6.63;3.73;;;;;;;;;;5044650;28;20593;-64
2021/12/10 07:41:00;;;;;;;6.77;3.33;;;;;;;;;;5048928;28;20235;-63
2021/12/10 07:43:26;;;;;;;8.43;3.50;;;;;;;;;;5041051;28;20225;-63
2021/12/10 07:45:52;;;;;;;6.23;3.23;;;;;;;;;;5046089;28;20260;-66
2021/12/10 07:48:19;;;;;;;6.50;3.60;;;;;;;;;;5050852;28;20696;-64
2021/12/10 07:50:53;;;;;;;7.03;3.10;;;;;;;;;;5048654;28;21516;-64
2021/12/10 07:53:19;;;;;;;9.20;3.83;;;;;;;;;;5037919;28;20231;-64
2021/12/10 07:55:45;;;;;;;13.00;3.40;;;;;;;;;;5038051;28;20628;-65
2021/12/10 07:58:11;;;;;;;8.00;3.13;;;;;;;;;;5048950;28;20408;-63
2021/12/10 08:00:40;;;;;;;9.53;4.20;;;;;;;;;;5037874;28;20243;-64
2021/12/10 08:03:06;;;;;;;11.93;3.03;;;;;;;;;;5048782;28;20239;-64
2021/12/10 08:05:32;;;;;;;8.50;3.07;;;;;;;;;;5044985;28;20235;-64
2021/12/10 08:07:58;;;;;;;7.63;3.33;;;;;;;;;;5026559;28;20219;-64
2021/12/10 08:10:24;;;;;;;10.17;3.40;;;;;;;;;;5044923;28;20230;-64
2021/12/10 08:12:50;;;;;;;7.33;2.93;;;;;;;;;;5051608;28;20231;-67
2021/12/10 08:15:16;;;;;;;8.23;2.77;;;;;;;;;;5046017;28;20238;-65
2021/12/10 08:17:43;;;;;;;8.63;2.70;;;;;;;;;;5045175;28;21897;-64
2021/12/10 08:20:09;;;;;;;8.60;2.80;;;;;;;;;;5043094;28;20230;-63
2021/12/10 08:22:35;;;;;;;7.77;2.80;;;;;;;;;;5040733;28;20330;-64
2021/12/10 08:25:01;;;;;;;12.00;3.13;;;;;;;;;;5043523;28;20227;-64
2021/12/10 08:27:27;;;;;;;8.57;3.20;;;;;;;;;;5049409;28;20232;-64
2021/12/10 08:29:53;;;;;;;5.23;2.67;;;;;;;;;;5044427;28;20690;-63
2021/12/10 08:32:21;;;;;;;4.97;2.87;;;;;;;;;;5048326;28;20235;-63
2021/12/10 08:34:47;;;;;;;6.57;2.93;;;;;;;;;;5046108;28;20253;-64
2021/12/10 08:37:13;;;;;;;5.10;2.77;;;;;;;;;;5058098;28;20482;-64
2021/12/10 08:39:39;;;;;;;5.67;2.80;;;;;;;;;;5045631;28;20239;-64
2021/12/10 08:42:06;;;;;;;7.73;3.07;;;;;;;;;;5049105;28;22050;-64
2021/12/10 08:44:32;;;;;;;8.40;2.97;;;;;;;;;;5051429;28;20335;-64
2021/12/10 08:46:58;;;;;;;9.07;3.00;;;;;;;;;;5050615;28;20740;-64
2021/12/10 08:49:24;;;;;;;7.20;3.10;;;;;;;;;;5055689;28;20721;-64
2021/12/10 08:51:52;;;;;;;7.53;2.83;;;;;;;;;;5047461;28;20665;-65
2021/12/10 08:54:18;;;;;;;6.93;2.97;;;;;;;;;;5047981;28;20679;-64
2021/12/10 08:56:45;;;;;;;10.00;3.20;;;;;;;;;;5047777;28;20227;-64
2021/12/10 08:59:11;;;;;;;8.37;3.17;;;;;;;;;;5052276;28;20646;-64
2021/12/10 09:01:39;;;;;;;10.23;3.70;;;;;;;;;;5046200;28;20238;-64
2021/12/10 09:04:06;;;;;;;7.40;3.00;;;;;;;;;;5056178;28;20243;-63
2021/12/10 09:06:33;;;;;;;9.73;3.27;;;;;;;;;;5050969;28;20239;-65
2021/12/10 09:08:59;;;;;;;13.73;3.60;;;;;;;;;;5050528;28;20227;-64
2021/12/10 09:11:26;;;;;;;9.60;3.63;;;;;;;;;;5046267;28;20235;-64
2021/12/10 09:13:51;;;;;;;8.40;3.77;;;;;;;;;;5048206;28;20219;-64
2021/12/10 09:16:23;;;;;;;9.20;4.10;;;;;;;;;;5049833;28;20238;-64
2021/12/10 09:18:49;;;;;;;6.30;3.60;;;;;;;;;;5047770;28;20223;-63
2021/12/10 09:21:15;;;;;;;5.27;3.40;;;;;;;;;;5054869;28;20574;-64
2021/12/10 09:23:41;;;;;;;9.13;4.13;;;;;;;;;;5053111;28;20617;-65
2021/12/10 09:26:10;;;;;;;5.87;4.50;;;;;;;;;;5051419;28;21900;-65
2021/12/10 09:28:36;;;;;;;9.97;4.03;;;;;;;;;;5050886;28;20224;-64
2021/12/10 09:31:02;;;;;;;7.53;4.37;;;;;;;;;;5038065;28;20293;-64
2021/12/10 09:33:28;;;;;;;8.87;3.50;;;;;;;;;;5031474;28;20740;-64
2021/12/10 09:35:54;;;;;;;7.80;4.00;;;;;;;;;;5045593;28;20231;-65
2021/12/10 09:38:21;;;;;;;6.40;3.67;;;;;;;;;;5047875;28;20235;-64
2021/12/10 09:40:48;;;;;;;8.40;4.00;;;;;;;;;;5049306;28;20317;-64
2021/12/10 09:43:14;;;;;;;8.13;4.03;;;;;;;;;;5049972;28;20239;-65
2021/12/10 09:45:41;;;;;;;8.27;4.20;;;;;;;;;;5047901;28;20235;-65
2021/12/10 09:48:09;;;;;;;8.63;3.87;;;;;;;;;;5054117;28;20306;-64
2021/12/10 09:50:36;;;;;;;6.37;3.60;;;;;;;;;;5054490;28;20510;-65
2021/12/10 09:53:03;;;;;;;8.10;4.00;;;;;;;;;;5048949;28;21053;-64
2021/12/10 09:55:29;;;;;;;8.13;4.13;;;;;;;;;;5028775;28;20617;-64
2021/12/10 09:57:55;;;;;;;6.93;3.93;;;;;;;;;;5053328;28;20364;-64
2021/12/10 10:00:31;;;;;;;6.30;4.03;;;;;;;;;;5056412;28;20893;-64
2021/12/10 10:02:57;;;;;;;9.60;4.00;;;;;;;;;;5048021;28;20234;-64
2021/12/10 10:05:27;;;;;;;7.50;3.93;;;;;;;;;;5050071;28;20231;-64
2021/12/10 10:07:54;;;;;;;11.80;4.20;;;;;;;;;;5052473;28;20231;-64
2021/12/10 10:10:20;;;;;;;7.83;3.60;;;;;;;;;;5047458;28;20227;-64
2021/12/10 10:12:47;;;;;;;8.03;3.90;;;;;;;;;;5047848;28;20736;-65
2021/12/10 10:15:14;;;;;;;6.50;3.70;;;;;;;;;;5051578;28;20635;-64
2021/12/10 10:17:40;;;;;;;5.13;3.60;;;;;;;;;;5052531;28;20622;-65
2021/12/10 10:20:07;;;;;;;6.50;3.33;;;;;;;;;;5042063;28;20740;-64
2021/12/10 10:22:33;;;;;;;9.97;3.83;;;;;;;;;;5047249;28;20301;-64
2021/12/10 10:24:59;;;;;;;8.23;3.67;;;;;;;;;;5051494;28;20260;-64
2021/12/10 10:27:28;;;;;;;8.30;3.50;;;;;;;;;;5045816;28;20234;-64
2021/12/10 10:29:56;;;;;;;6.00;3.13;;;;;;;;;;5048088;28;20301;-64
2021/12/10 10:32:23;;;;;;;7.87;3.47;;;;;;;;;;5049558;28;20705;-64
2021/12/10 10:34:51;;;;;;;7.50;3.60;;;;;;;;;;5053286;28;20309;-63
2021/12/10 10:37:17;;;;;;;6.53;3.33;;;;;;;;;;5049635;28;20227;-64
2021/12/10 10:39:43;;;;;;;7.23;3.17;;;;;;;;;;5049893;28;20243;-65
2021/12/10 10:42:12;;;;;;;8.37;3.30;;;;;;;;;;5044558;28;20610;-65
2021/12/10 10:44:38;;;;;;;4.50;3.03;;;;;;;;;;5047748;28;20235;-64
2021/12/10 10:47:04;;;;;;;7.57;3.40;;;;;;;;;;5043842;28;20243;-65
2021/12/10 10:49:33;;;;;;;5.33;3.10;;;;;;;;;;5045128;28;20298;-65
2021/12/10 10:51:59;;;;;;;7.27;3.10;;;;;;;;;;5051717;28;20235;-63
2021/12/10 10:54:30;;;;;;;9.03;3.80;;;;;;;;;;5045613;28;22436;-64
2021/12/10 10:56:56;;;;;;;6.80;3.33;;;;;;;;;;5042103;28;20227;-62
2021/12/10 10:59:25;;;;;;;10.17;3.50;;;;;;;;;;5046999;28;20243;-64
2021/12/10 11:01:59;;;;;;;6.37;3.40;;;;;;;;;;5053887;28;20530;-64
2021/12/10 11:04:32;;;;;;;6.93;3.40;;;;;;;;;;5044343;28;20325;-64
2021/12/10 11:07:04;;;;;;;7.97;3.80;;;;;;;;;;5051840;28;20603;-64
2021/12/10 11:09:31;;;;;;;7.60;3.70;;;;;;;;;;5053285;28;20219;-64
2021/12/10 11:11:58;;;;;;;9.50;3.50;;;;;;;;;;5051658;28;20675;-65
2021/12/10 11:14:25;;;;;;;7.93;3.27;;;;;;;;;;5043911;28;20730;-64
2021/12/10 11:16:53;;;;;;;6.20;3.10;;;;;;;;;;5046700;28;20227;-64
2021/12/10 11:19:20;;;;;;;6.13;3.43;;;;;;;;;;5039250;28;20235;-65
2021/12/10 11:21:50;;;;;;;5.50;3.13;;;;;;;;;;5041372;28;20258;-65
2021/12/10 11:24:19;;;;;;;8.40;3.40;;;;;;;;;;5032466;28;20320;-64
2021/12/10 11:26:56;;;;;;;7.47;2.90;;;;;;;;;;5052936;28;20235;-65
2021/12/10 11:29:39;;;;;;;5.87;3.07;;;;;;;;;;5043424;28;20273;-64
2021/12/10 11:32:07;;;;;;;5.97;3.10;;;;;;;;;;5049452;28;20231;-65
2021/12/10 11:35:12;;;;;;;5.10;2.93;;;;;;;;;;5041616;28;20227;-64
2021/12/10 11:37:45;;;;;;;4.90;2.87;;;;;;;;;;5000126;28;20227;-63
2021/12/10 11:40:20;;;;;;;6.53;3.27;;;;;;;;;;5004863;28;20244;-64
2021/12/10 11:42:49;;;;;;;5.20;2.67;;;;;;;;;;5019593;28;20234;-65
2021/12/10 11:45:35;;;;;;;6.60;3.10;;;;;;;;;;5034979;28;20239;-64
2021/12/10 11:48:08;;;;;;;5.83;2.80;;;;;;;;;;5032220;28;21010;-66
2021/12/10 11:50:35;;;;;;;4.97;2.97;;;;;;;;;;5036112;28;20322;-64
2021/12/10 11:53:11;;;;;;;5.47;3.00;;;;;;;;;;5037070;28;20340;-66
2021/12/10 11:55:37;;;;;;;8.23;3.10;;;;;;;;;;5025853;28;20343;-64
2021/12/10 11:58:04;;;;;;;6.60;2.73;;;;;;;;;;5049215;28;20232;-65
2021/12/10 12:00:34;;;;;;;6.57;2.90;;;;;;;;;;5029227;28;20586;-64
2021/12/10 12:03:06;;;;;;;5.83;2.67;;;;;;;;;;5035631;28;20735;-65
2021/12/10 12:05:34;;;;;;;6.90;3.30;;;;;;;;;;5043659;28;20732;-64
2021/12/10 12:08:02;;;;;;;7.60;2.80;;;;;;;;;;5043284;28;20230;-63
2021/12/10 12:10:37;;;;;;;7.77;3.07;;;;;;;;;;5050027;28;20255;-64
2021/12/10 12:13:19;;;;;;;5.93;2.73;;;;;;;;;;5053736;28;20726;-64
2021/12/10 12:16:02;;;;;;;7.03;2.70;;;;;;;;;;5047699;28;20257;-63
2021/12/10 12:18:29;;;;;;;4.50;2.60;;;;;;;;;;5038458;28;20235;-63
2021/12/10 12:20:55;;;;;;;4.83;3.10;;;;;;;;;;5038640;28;20578;-65
2021/12/10 12:26:19;;;;;;;8.47;3.10;;;;;;;;;;5024833;28;20227;-65
2021/12/10 12:28:46;;;;;;;6.53;2.70;;;;;;;;;;5054390;28;20227;-64
2021/12/10 12:31:20;;;;;;;5.60;2.83;;;;;;;;;;5055757;28;20235;-63
2021/12/10 12:33:51;;;;;;;7.40;3.00;;;;;;;;;;5038687;28;20228;-65
2021/12/10 12:36:17;;;;;;;8.03;3.00;;;;;;;;;;5048634;28;20414;-65
2021/12/10 12:38:44;;;;;;;8.00;3.07;;;;;;;;;;5045081;28;20249;-64
2021/12/10 12:41:15;;;;;;;5.13;2.70;;;;;;;;;;5054138;28;20293;-64
2021/12/10 12:43:41;;;;;;;5.30;2.80;;;;;;;;;;5047931;28;20730;-67
2021/12/10 12:46:08;;;;;;;7.10;3.00;;;;;;;;;;5030460;28;20228;-64
2021/12/10 12:48:34;;;;;;;6.70;3.10;;;;;;;;;;5048456;28;20370;-63
2021/12/10 12:51:02;;;;;;;7.70;3.23;;;;;;;;;;5045373;28;20282;-62
2021/12/10 12:53:30;;;;;;;11.70;3.07;;;;;;;;;;5020478;28;20914;-63
2021/12/10 12:56:03;;;;;;;4.97;2.67;;;;;;;;;;5023612;28;20763;-64
2021/12/10 12:58:33;;;;;;;4.60;2.60;;;;;;;;;;5039533;28;20226;-66
2021/12/10 13:01:11;;;;;;;6.30;2.67;;;;;;;;;;5043608;28;20670;-65
2021/12/10 13:03:51;;;;;;;6.00;2.70;;;;;;;;;;5046805;28;20305;-64
2021/12/10 13:06:19;;;;;;;5.70;2.60;;;;;;;;;;5049913;28;20588;-65
2021/12/10 13:08:46;;;;;;;5.33;2.57;;;;;;;;;;5045402;28;20559;-65
2021/12/10 13:11:19;;;;;;;7.30;2.87;;;;;;;;;;5050924;28;20227;-65
2021/12/10 13:13:51;;;;;;;9.00;3.33;;;;;;;;;;5044811;28;20231;-65
2021/12/10 13:16:45;;;;;;;4.97;2.90;;;;;;;;;;5045262;28;21733;-64
2021/12/10 13:19:15;;;;;;;7.07;3.00;;;;;;;;;;5037321;28;20786;-64
2021/12/10 13:21:42;;;;;;;7.77;2.97;;;;;;;;;;5048803;28;20219;-65
2021/12/10 13:24:09;;;;;;;6.03;3.20;;;;;;;;;;5045462;28;20224;-64
2021/12/10 13:26:35;;;;;;;4.87;2.77;;;;;;;;;;5047509;28;20219;-65
2021/12/10 13:29:01;;;;;;;6.03;3.13;;;;;;;;;;5030220;28;22165;-65
2021/12/10 13:31:28;;;;;;;6.47;3.23;;;;;;;;;;5049186;28;20289;-65
2021/12/10 13:33:54;;;;;;;5.23;2.63;;;;;;;;;;5028702;28;20668;-65
2021/12/10 13:36:20;;;;;;;8.80;3.30;;;;;;;;;;5035537;28;20227;-65
2021/12/10 13:38:48;;;;;;;6.33;3.13;;;;;;;;;;5031803;28;20994;-64
2021/12/10 13:41:14;;;;;;;7.37;2.97;;;;;;;;;;5029555;28;20347;-65
2021/12/10 13:43:40;;;;;;;5.00;3.10;;;;;;;;;;5025192;28;20250;-65
2021/12/10 13:46:11;;;;;;;6.63;2.90;;;;;;;;;;5022491;28;20230;-65
2021/12/10 13:48:39;;;;;;;4.10;2.83;;;;;;;;;;5033381;28;20701;-65
2021/12/10 13:51:05;;;;;;;5.80;2.70;;;;;;;;;;5033956;28;20246;-64
2021/12/10 13:53:31;;;;;;;5.97;3.23;;;;;;;;;;5032573;28;20270;-65
2021/12/10 13:56:04;;;;;;;5.53;3.33;;;;;;;;;;5006137;28;20327;-64
2021/12/10 13:58:41;;;;;;;5.77;3.30;;;;;;;;;;5033568;28;20581;-66
2021/12/10 14:01:11;;;;;;;4.77;3.17;;;;;;;;;;5033088;28;20607;-64
2021/12/10 14:03:42;;;;;;;5.63;3.20;;;;;;;;;;5027683;28;20644;-63
2021/12/10 14:06:08;;;;;;;5.00;3.20;;;;;;;;;;5024805;28;20773;-64
2021/12/10 14:08:34;;;;;;;7.20;3.30;;;;;;;;;;5036906;28;20231;-63
2021/12/10 14:11:12;;;;;;;4.23;3.13;;;;;;;;;;5036855;28;20321;-64
2021/12/10 14:13:38;;;;;;;7.50;3.33;;;;;;;;;;5029689;28;21407;-64
2021/12/10 14:16:06;;;;;;;5.67;3.70;;;;;;;;;;5031970;28;20832;-64
2021/12/10 14:18:50;;;;;;;5.57;3.63;;;;;;;;;;5026189;28;20696;-63
2021/12/10 14:21:17;;;;;;;6.00;3.53;;;;;;;;;;5019700;28;20245;-64
2021/12/10 14:23:44;;;;;;;5.47;3.33;;;;;;;;;;5035509;28;20239;-63
2021/12/10 14:26:20;;;;;;;5.30;3.70;;;;;;;;;;5032602;28;20230;-63
2021/12/10 14:28:47;;;;;;;5.97;3.20;;;;;;;;;;5024854;28;20370;-64
2021/12/10 14:31:15;;;;;;;7.80;4.03;;;;;;;;;;5031914;28;20235;-65
2021/12/10 14:33:42;;;;;;;7.67;3.80;;;;;;;;;;5034610;28;20246;-64
2021/12/10 14:36:27;;;;;;;5.80;3.20;;;;;;;;;;5036019;28;20258;-65
2021/12/10 14:39:02;;;;;;;7.77;3.53;;;;;;;;;;5022546;28;20906;-64
2021/12/10 14:41:31;;;;;;;6.17;3.50;;;;;;;;;;5017459;28;20322;-66
2021/12/10 14:44:04;;;;;;;8.00;3.70;;;;;;;;;;5022927;28;20547;-64
2021/12/10 14:46:34;;;;;;;8.30;3.67;;;;;;;;;;5021187;28;20258;-64
2021/12/10 14:49:00;;;;;;;6.47;3.60;;;;;;;;;;5030750;28;20234;-64
2021/12/10 14:51:26;;;;;;;6.73;3.57;;;;;;;;;;5031799;28;20235;-64
2021/12/10 14:53:54;;;;;;;8.30;3.80;;;;;;;;;;5033679;28;20254;-65
2021/12/10 14:56:25;;;;;;;5.93;3.53;;;;;;;;;;5027194;28;20223;-64
2021/12/10 14:59:01;;;;;;;6.27;3.30;;;;;;;;;;5035468;28;20243;-63
2021/12/10 15:01:27;;;;;;;3.93;3.60;;;;;;;;;;5036820;28;20353;-64